Explora — IXWQ — position and weather

sailwx.info

Track history (hours):
 
Tides and Currents Weather Stations Pressure Air Temp Water Temp Dewpoint Dewpoint Depression Visibility Wind Speed Wind Dir Waves Ship Positions

Oceanographic research ship Explora (Italy)

Detailed information on ship capabilities available from University of Delaware's Ocean Information Center.

Last reported at 2014-Jul-24 01:04 UTC. Time now 2014-Jul-28 04:23 UTC.
Position N 41°00' E 028°60'.

Length 73 m; draft 5.5 m.

Type: Dredging. MMSI: 247028700.

Date/timePositionNaut miles runAvg speedWind from/ knotsBaromVisibWave heightAir tempDewpointWater temp
2014-Jul-24 01:04N 41°00' E 028°60'3 4.9
2014-Jul-24 00:33N 40°58' E 028°60'4 3.7
2014-Jul-23 23:33N 40°58' E 028°55'0 0.1
2014-Jul-23 22:27N 40°58' E 028°55'0 0.0
2014-Jul-23 21:27N 40°58' E 028°55'0 0.0
2014-Jul-23 20:33N 40°58' E 028°55'0 0.0
2014-Jul-23 19:27N 40°58' E 028°55'1 0.6
2014-Jul-23 18:33N 40°57' E 028°56'8 7.3
2014-Jul-23 17:31N 40°52' E 028°49'9910.5
2014-Jul-23 08:10N 40°25' E 026°44'5 8.2
2014-Jul-23 07:33N 40°22' E 026°39'72 7.8
2014-Jul-22 22:14N 39°29' E 025°35'710.1
2014-Jul-22 21:31N 39°22' E 025°31'9610.4
2014-Jul-22 12:18N 37°55' E 024°37'1110.6
2014-Jul-22 11:18N 37°45' E 024°32'810.6
2014-Jul-22 10:33N 37°38' E 024°28'2310.7
2014-Jul-22 08:26N 37°19' E 024°13'1110.4
2014-Jul-22 07:20N 37°10' E 024°04'910.3
2014-Jul-22 06:30N 37°04' E 023°57'1010.4
2014-Jul-22 05:31N 36°56' E 023°49'1310.0
2014-Jul-22 04:11N 36°45' E 023°39'10 9.7
2014-Jul-22 03:07N 36°36' E 023°32'6 9.8
2014-Jul-22 02:29N 36°31' E 023°27'  
Track history (hours):
 
Tides and Currents Weather Stations Pressure Air Temp Water Temp Dewpoint Dewpoint Depression Visibility Wind Speed Wind Dir Waves Ship Positions

Oceanographic research ship Explora (Italy)

Detailed information on ship capabilities available from University of Delaware's Ocean Information Center.

Last reported at 2014-Jul-24 01:04 UTC. Time now 2014-Jul-28 04:23 UTC.
Position N 41°00' E 028°60'.

Length 73 m; draft 5.5 m.

Type: Dredging. MMSI: 247028700.

Date/timePositionNaut miles runAvg speedWind from/ knotsBaromVisibWave heightAir tempDewpointWater temp
2014-Jul-24 01:04N 41°00' E 028°60'3 4.9
2014-Jul-24 00:33N 40°58' E 028°60'4 3.7
2014-Jul-23 23:33N 40°58' E 028°55'0 0.1
2014-Jul-23 22:27N 40°58' E 028°55'0 0.0
2014-Jul-23 21:27N 40°58' E 028°55'0 0.0
2014-Jul-23 20:33N 40°58' E 028°55'0 0.0
2014-Jul-23 19:27N 40°58' E 028°55'1 0.6
2014-Jul-23 18:33N 40°57' E 028°56'8 7.3
2014-Jul-23 17:31N 40°52' E 028°49'9910.5
2014-Jul-23 08:10N 40°25' E 026°44'5 8.2
2014-Jul-23 07:33N 40°22' E 026°39'72 7.8
2014-Jul-22 22:14N 39°29' E 025°35'710.1
2014-Jul-22 21:31N 39°22' E 025°31'9610.4
2014-Jul-22 12:18N 37°55' E 024°37'1110.6
2014-Jul-22 11:18N 37°45' E 024°32'810.6
2014-Jul-22 10:33N 37°38' E 024°28'2310.7
2014-Jul-22 08:26N 37°19' E 024°13'1110.4
2014-Jul-22 07:20N 37°10' E 024°04'910.3
2014-Jul-22 06:30N 37°04' E 023°57'1010.4
2014-Jul-22 05:31N 36°56' E 023°49'1310.0
2014-Jul-22 04:11N 36°45' E 023°39'10 9.7
2014-Jul-22 03:07N 36°36' E 023°32'6 9.8
2014-Jul-22 02:29N 36°31' E 023°27'  

Dump ship's entire track history